sensor_id;sensor_type;location;lat;lon;timestamp;pressure;altitude;pressure_sealevel;temperature;humidity
58739;BME280;44512;53.046;18.604;2023-05-21T00:05:13;102493.38;;;19.26;54.18
58739;BME280;44512;53.046;18.604;2023-05-21T00:15:42;102486.87;;;19.21;54.07
58739;BME280;44512;53.046;18.604;2023-05-21T00:26:10;102487.95;;;19.13;54.00
58739;BME280;44512;53.046;18.604;2023-05-21T00:36:38;102494.71;;;19.04;54.01
58739;BME280;44512;53.046;18.604;2023-05-21T00:47:07;102492.19;;;18.96;54.05
58739;BME280;44512;53.046;18.604;2023-05-21T00:57:35;102484.20;;;18.88;54.05
58739;BME280;44512;53.046;18.604;2023-05-21T01:08:04;102484.85;;;18.77;54.05
58739;BME280;44512;53.046;18.604;2023-05-21T01:18:33;102481.66;;;18.66;54.06
58739;BME280;44512;53.046;18.604;2023-05-21T01:29:00;102471.94;;;18.57;54.05
58739;BME280;44512;53.046;18.604;2023-05-21T01:39:33;102467.73;;;18.48;54.04
58739;BME280;44512;53.046;18.604;2023-05-21T01:49:58;102468.57;;;18.42;54.06
58739;BME280;44512;53.046;18.604;2023-05-21T02:00:26;102466.86;;;18.34;54.02
58739;BME280;44512;53.046;18.604;2023-05-21T02:10:54;102472.35;;;18.28;54.01
58739;BME280;44512;53.046;18.604;2023-05-21T02:21:22;102467.27;;;18.18;54.17
58739;BME280;44512;53.046;18.604;2023-05-21T02:31:51;102465.15;;;18.07;54.31
58739;BME280;44512;53.046;18.604;2023-05-21T02:42:21;102468.29;;;17.97;54.41
58739;BME280;44512;53.046;18.604;2023-05-21T02:52:47;102456.88;;;17.87;54.58
58739;BME280;44512;53.046;18.604;2023-05-21T03:03:16;102448.20;;;17.77;54.70
58739;BME280;44512;53.046;18.604;2023-05-21T03:13:44;102444.81;;;17.68;54.77
58739;BME280;44512;53.046;18.604;2023-05-21T03:24:13;102436.77;;;17.60;54.85
58739;BME280;44512;53.046;18.604;2023-05-21T03:34:41;102441.38;;;17.53;54.96
58739;BME280;44512;53.046;18.604;2023-05-21T03:45:10;102457.37;;;17.49;55.02
58739;BME280;44512;53.046;18.604;2023-05-21T03:55:38;102455.88;;;17.47;54.81
58739;BME280;44512;53.046;18.604;2023-05-21T04:06:06;102451.02;;;17.42;54.75
58739;BME280;44512;53.046;18.604;2023-05-21T04:16:34;102458.58;;;17.40;54.72
58739;BME280;44512;53.046;18.604;2023-05-21T04:27:04;102456.30;;;17.43;54.61
58739;BME280;44512;53.046;18.604;2023-05-21T04:37:31;102451.27;;;17.47;54.44
58739;BME280;44512;53.046;18.604;2023-05-21T04:47:59;102446.20;;;17.51;54.38
58739;BME280;44512;53.046;18.604;2023-05-21T04:58:28;102440.75;;;17.57;54.25
58739;BME280;44512;53.046;18.604;2023-05-21T05:08:56;102438.05;;;17.64;53.99
58739;BME280;44512;53.046;18.604;2023-05-21T05:19:25;102439.75;;;17.71;53.40
58739;BME280;44512;53.046;18.604;2023-05-21T05:29:53;102439.60;;;17.80;53.12
58739;BME280;44512;53.046;18.604;2023-05-21T05:40:21;102440.04;;;17.90;52.73
58739;BME280;44512;53.046;18.604;2023-05-21T05:50:50;102441.11;;;18.02;52.62
58739;BME280;44512;53.046;18.604;2023-05-21T06:01:18;102443.23;;;18.13;52.16
58739;BME280;44512;53.046;18.604;2023-05-21T06:11:46;102443.27;;;18.27;51.69
58739;BME280;44512;53.046;18.604;2023-05-21T06:22:15;102445.14;;;18.39;51.50
58739;BME280;44512;53.046;18.604;2023-05-21T06:32:43;102445.16;;;18.53;51.42
58739;BME280;44512;53.046;18.604;2023-05-21T06:43:12;102429.73;;;18.65;50.97
58739;BME280;44512;53.046;18.604;2023-05-21T06:53:40;102425.11;;;18.79;50.74
58739;BME280;44512;53.046;18.604;2023-05-21T07:04:08;102432.27;;;18.93;50.00
58739;BME280;44512;53.046;18.604;2023-05-21T07:14:36;102423.79;;;19.08;48.86
58739;BME280;44512;53.046;18.604;2023-05-21T07:25:06;102418.66;;;19.24;48.69
58739;BME280;44512;53.046;18.604;2023-05-21T07:35:33;102419.23;;;19.40;47.92
58739;BME280;44512;53.046;18.604;2023-05-21T07:46:01;102417.65;;;19.57;47.33
58739;BME280;44512;53.046;18.604;2023-05-21T07:56:30;102418.01;;;19.74;46.27
58739;BME280;44512;53.046;18.604;2023-05-21T08:06:58;102417.88;;;19.94;45.81
58739;BME280;44512;53.046;18.604;2023-05-21T08:17:26;102421.97;;;20.16;45.03
58739;BME280;44512;53.046;18.604;2023-05-21T08:27:55;102409.95;;;20.36;43.37
58739;BME280;44512;53.046;18.604;2023-05-21T08:38:23;102409.39;;;20.52;41.74
58739;BME280;44512;53.046;18.604;2023-05-21T08:48:51;102414.78;;;20.65;40.77
58739;BME280;44512;53.046;18.604;2023-05-21T08:59:20;102405.34;;;20.79;39.97
58739;BME280;44512;53.046;18.604;2023-05-21T09:09:57;102407.73;;;20.94;39.29
58739;BME280;44512;53.046;18.604;2023-05-21T09:20:17;102394.62;;;21.08;40.18
58739;BME280;44512;53.046;18.604;2023-05-21T09:30:51;102398.91;;;21.22;40.90
58739;BME280;44512;53.046;18.604;2023-05-21T09:41:13;102398.64;;;21.30;39.75
58739;BME280;44512;53.046;18.604;2023-05-21T09:51:42;102397.84;;;21.42;39.53
58739;BME280;44512;53.046;18.604;2023-05-21T10:12:43;102386.69;;;21.67;39.51
58739;BME280;44512;53.046;18.604;2023-05-21T10:23:07;102378.46;;;21.78;39.39
58739;BME280;44512;53.046;18.604;2023-05-21T10:33:35;102374.63;;;21.91;39.14
58739;BME280;44512;53.046;18.604;2023-05-21T11:05:00;102353.28;;;22.28;36.91
58739;BME280;44512;53.046;18.604;2023-05-21T11:15:28;102352.44;;;22.40;36.64
58739;BME280;44512;53.046;18.604;2023-05-21T11:26:00;102334.20;;;22.50;35.87
58739;BME280;44512;53.046;18.604;2023-05-21T11:36:25;102338.02;;;22.61;35.37
58739;BME280;44512;53.046;18.604;2023-05-21T11:46:53;102321.69;;;22.71;35.43
58739;BME280;44512;53.046;18.604;2023-05-21T11:57:24;102311.45;;;22.83;34.85
58739;BME280;44512;53.046;18.604;2023-05-21T12:07:50;102317.83;;;22.96;34.62
58739;BME280;44512;53.046;18.604;2023-05-21T12:18:19;102319.45;;;23.08;34.08
58739;BME280;44512;53.046;18.604;2023-05-21T12:28:47;102313.30;;;23.18;33.28
58739;BME280;44512;53.046;18.604;2023-05-21T12:39:15;102316.25;;;23.28;32.90
58739;BME280;44512;53.046;18.604;2023-05-21T12:49:45;102300.35;;;23.35;32.22
58739;BME280;44512;53.046;18.604;2023-05-21T13:00:12;102299.97;;;23.44;31.05
58739;BME280;44512;53.046;18.604;2023-05-21T13:10:40;102295.10;;;23.51;30.46
58739;BME280;44512;53.046;18.604;2023-05-21T13:21:08;102292.44;;;23.56;29.82
58739;BME280;44512;53.046;18.604;2023-05-21T13:31:36;102284.23;;;23.61;28.37
58739;BME280;44512;53.046;18.604;2023-05-21T13:42:05;102266.67;;;23.67;28.47
58739;BME280;44512;53.046;18.604;2023-05-21T13:52:33;102263.02;;;23.78;28.06
58739;BME280;44512;53.046;18.604;2023-05-21T14:03:01;102262.66;;;23.91;28.31
58739;BME280;44512;53.046;18.604;2023-05-21T14:13:30;102249.31;;;24.05;28.10
58739;BME280;44512;53.046;18.604;2023-05-21T14:23:58;102243.18;;;24.20;28.59
58739;BME280;44512;53.046;18.604;2023-05-21T14:34:26;102225.89;;;24.30;27.95
58739;BME280;44512;53.046;18.604;2023-05-21T14:50:01;102232.80;;;24.71;27.18
58739;BME280;44512;53.046;18.604;2023-05-21T15:00:29;102229.78;;;25.00;26.76
58739;BME280;44512;53.046;18.604;2023-05-21T15:10:57;102219.87;;;25.31;26.80
58739;BME280;44512;53.046;18.604;2023-05-21T15:21:25;102215.60;;;25.82;26.26
58739;BME280;44512;53.046;18.604;2023-05-21T15:31:54;102214.81;;;26.39;26.14
58739;BME280;44512;53.046;18.604;2023-05-21T15:42:22;102210.84;;;26.78;25.47
58739;BME280;44512;53.046;18.604;2023-05-21T15:52:50;102194.45;;;26.91;25.19
58739;BME280;44512;53.046;18.604;2023-05-21T16:03:19;102182.52;;;26.91;24.55
58739;BME280;44512;53.046;18.604;2023-05-21T16:13:47;102178.89;;;26.85;24.30
58739;BME280;44512;53.046;18.604;2023-05-21T16:24:15;102182.49;;;26.81;23.65
58739;BME280;44512;53.046;18.604;2023-05-21T16:34:43;102181.34;;;26.71;23.56
58739;BME280;44512;53.046;18.604;2023-05-21T16:45:12;102182.74;;;26.64;23.82
58739;BME280;44512;53.046;18.604;2023-05-21T16:55:40;102184.93;;;26.62;23.79
58739;BME280;44512;53.046;18.604;2023-05-21T17:06:08;102191.88;;;26.59;23.29
58739;BME280;44512;53.046;18.604;2023-05-21T17:16:37;102186.02;;;26.51;23.16
58739;BME280;44512;53.046;18.604;2023-05-21T17:27:05;102195.66;;;26.38;23.42
58739;BME280;44512;53.046;18.604;2023-05-21T17:37:33;102185.59;;;26.21;23.92
58739;BME280;44512;53.046;18.604;2023-05-21T17:48:02;102175.78;;;26.04;24.54
58739;BME280;44512;53.046;18.604;2023-05-21T17:58:30;102174.55;;;25.84;24.98
58739;BME280;44512;53.046;18.604;2023-05-21T18:08:58;102164.16;;;25.64;25.43
58739;BME280;44512;53.046;18.604;2023-05-21T18:19:27;102175.93;;;25.44;25.84
58739;BME280;44512;53.046;18.604;2023-05-21T18:29:55;102167.72;;;25.23;26.35
58739;BME280;44512;53.046;18.604;2023-05-21T18:40:23;102172.17;;;25.02;26.67
58739;BME280;44512;53.046;18.604;2023-05-21T18:50:53;102175.85;;;24.80;26.99
58739;BME280;44512;53.046;18.604;2023-05-21T19:01:20;102172.28;;;24.58;27.47
58739;BME280;44512;53.046;18.604;2023-05-21T19:11:49;102183.58;;;24.34;27.99
58739;BME280;44512;53.046;18.604;2023-05-21T19:22:17;102176.38;;;24.11;28.78
58739;BME280;44512;53.046;18.604;2023-05-21T19:32:45;102173.52;;;23.84;29.54
58739;BME280;44512;53.046;18.604;2023-05-21T19:43:13;102182.99;;;23.55;30.02
58739;BME280;44512;53.046;18.604;2023-05-21T19:53:42;102176.37;;;23.22;30.58
58739;BME280;44512;53.046;18.604;2023-05-21T20:04:10;102171.98;;;22.93;31.29
58739;BME280;44512;53.046;18.604;2023-05-21T20:14:38;102170.88;;;22.65;31.86
58739;BME280;44512;53.046;18.604;2023-05-21T20:25:07;102161.48;;;22.38;32.53
58739;BME280;44512;53.046;18.604;2023-05-21T20:35:35;102167.17;;;22.07;33.02
58739;BME280;44512;53.046;18.604;2023-05-21T20:46:04;102164.91;;;21.81;33.89
58739;BME280;44512;53.046;18.604;2023-05-21T20:56:32;102174.27;;;21.56;34.65
58739;BME280;44512;53.046;18.604;2023-05-21T21:07:00;102171.23;;;21.35;35.29
58739;BME280;44512;53.046;18.604;2023-05-21T21:17:28;102180.02;;;21.13;35.81
58739;BME280;44512;53.046;18.604;2023-05-21T21:27:57;102177.22;;;20.90;36.39
58739;BME280;44512;53.046;18.604;2023-05-21T21:38:26;102175.58;;;20.70;36.15
58739;BME280;44512;53.046;18.604;2023-05-21T21:48:54;102174.77;;;20.51;36.81
58739;BME280;44512;53.046;18.604;2023-05-21T21:59:22;102169.27;;;20.33;37.02
58739;BME280;44512;53.046;18.604;2023-05-21T22:09:50;102176.08;;;20.12;37.37
58739;BME280;44512;53.046;18.604;2023-05-21T22:20:19;102168.88;;;19.93;37.68
58739;BME280;44512;53.046;18.604;2023-05-21T22:30:47;102166.14;;;19.74;37.93
58739;BME280;44512;53.046;18.604;2023-05-21T22:41:15;102166.66;;;19.58;38.66
58739;BME280;44512;53.046;18.604;2023-05-21T22:51:44;102165.79;;;19.39;38.78
58739;BME280;44512;53.046;18.604;2023-05-21T23:02:12;102162.13;;;19.20;39.25
58739;BME280;44512;53.046;18.604;2023-05-21T23:12:41;102161.20;;;19.02;39.62
58739;BME280;44512;53.046;18.604;2023-05-21T23:23:09;102168.06;;;18.86;40.05
58739;BME280;44512;53.046;18.604;2023-05-21T23:33:37;102160.12;;;18.71;40.42
58739;BME280;44512;53.046;18.604;2023-05-21T23:44:06;102167.57;;;18.57;40.57
58739;BME280;44512;53.046;18.604;2023-05-21T23:54:34;102169.52;;;18.43;40.97
